Time;durP1;ratioP1;P1;durP2;ratioP2;P2;SDS_P1;SDS_P2;PMS_P1;PMS_P2;Temp;Humidity;BMP_temperature;BMP_pressure;BME280_temperature;BME280_humidity;BME280_pressure;Samples;Min_cycle;Max_cycle;Signal;HPM_P1;HPM_P2
2023/06/24 00:00:01;;;;;;;8.88;4.28;;;;;;;;;;7364337;19;20017;-67
2023/06/24 00:02:26;;;;;;;9.45;4.07;;;;;;;;;;7366195;19;20432;-67
2023/06/24 00:04:51;;;;;;;8.18;4.10;;;;;;;;;;7370997;19;20003;-67
2023/06/24 00:07:17;;;;;;;7.38;4.32;;;;;;;;;;7369860;19;20018;-67
2023/06/24 00:09:42;;;;;;;8.32;4.80;;;;;;;;;;7388738;19;20408;-67
2023/06/24 00:12:08;;;;;;;7.10;4.18;;;;;;;;;;7368259;19;20368;-67
2023/06/24 00:14:33;;;;;;;7.57;4.32;;;;;;;;;;7367188;19;20035;-66
2023/06/24 00:16:59;;;;;;;8.13;4.53;;;;;;;;;;7366335;19;20035;-66
2023/06/24 00:19:26;;;;;;;7.35;4.28;;;;;;;;;;7366018;19;20010;-67
2023/06/24 00:21:52;;;;;;;7.80;4.22;;;;;;;;;;7366427;19;19995;-66
2023/06/24 00:24:19;;;;;;;6.80;4.10;;;;;;;;;;7387204;19;20011;-66
2023/06/24 00:26:46;;;;;;;6.78;4.20;;;;;;;;;;7365663;19;20018;-67
2023/06/24 00:29:12;;;;;;;6.78;4.30;;;;;;;;;;7365838;19;20015;-67
2023/06/24 00:31:37;;;;;;;9.20;4.13;;;;;;;;;;7368916;19;20401;-67
2023/06/24 00:34:02;;;;;;;8.48;4.40;;;;;;;;;;7373387;19;20007;-67
2023/06/24 00:36:28;;;;;;;8.70;4.80;;;;;;;;;;7392439;19;20074;-67
2023/06/24 00:38:55;;;;;;;11.57;4.50;;;;;;;;;;7371013;19;20019;-67
2023/06/24 00:41:20;;;;;;;7.05;4.70;;;;;;;;;;7371812;19;20017;-67
2023/06/24 00:43:46;;;;;;;10.45;4.65;;;;;;;;;;7370937;19;20014;-67
2023/06/24 00:46:13;;;;;;;10.02;4.70;;;;;;;;;;7371237;19;20024;-67
2023/06/24 00:48:39;;;;;;;7.20;4.40;;;;;;;;;;7390881;19;20014;-67
2023/06/24 00:51:04;;;;;;;7.18;4.53;;;;;;;;;;7370644;19;20014;-67
2023/06/24 00:53:30;;;;;;;7.18;4.28;;;;;;;;;;7371679;19;20010;-67
2023/06/24 00:55:56;;;;;;;7.85;4.55;;;;;;;;;;7372470;19;20166;-67
2023/06/24 00:58:22;;;;;;;7.15;4.50;;;;;;;;;;7370411;19;20014;-67
2023/06/24 01:00:56;;;;;;;7.63;4.40;;;;;;;;;;7392493;19;20480;-67
2023/06/24 01:03:24;;;;;;;8.98;4.22;;;;;;;;;;7371037;19;20350;-67
2023/06/24 01:05:50;;;;;;;7.78;4.63;;;;;;;;;;7370288;19;20006;-66
2023/06/24 01:08:15;;;;;;;7.40;4.85;;;;;;;;;;7370916;19;20018;-65
2023/06/24 01:10:41;;;;;;;7.95;4.43;;;;;;;;;;7374375;19;20010;-65
2023/06/24 01:13:07;;;;;;;7.97;4.82;;;;;;;;;;7375310;19;20476;-65
2023/06/24 01:15:33;;;;;;;6.93;4.80;;;;;;;;;;7397788;19;20014;-66
2023/06/24 01:18:16;;;;;;;6.63;4.28;;;;;;;;;;7370546;19;20437;-66
2023/06/24 01:21:08;;;;;;;10.60;4.93;;;;;;;;;;7372571;19;20528;-66
2023/06/24 01:23:39;;;;;;;6.65;4.45;;;;;;;;;;7372723;19;20006;-65
2023/06/24 01:26:29;;;;;;;8.00;4.70;;;;;;;;;;7371490;19;20007;-66
2023/06/24 01:29:14;;;;;;;8.43;5.10;;;;;;;;;;7370548;19;20070;-66
2023/06/24 01:31:55;;;;;;;8.77;4.30;;;;;;;;;;7371154;19;20010;-67
2023/06/24 01:34:27;;;;;;;7.65;4.93;;;;;;;;;;7370822;19;20021;-66
2023/06/24 01:37:13;;;;;;;10.38;5.22;;;;;;;;;;7370313;19;20018;-66
2023/06/24 01:39:50;;;;;;;7.82;5.00;;;;;;;;;;7391305;19;20018;-67
2023/06/24 01:42:18;;;;;;;7.78;4.68;;;;;;;;;;7369331;19;20019;-66
2023/06/24 01:44:47;;;;;;;7.07;4.68;;;;;;;;;;7369404;19;20006;-67
2023/06/24 01:47:18;;;;;;;9.10;5.00;;;;;;;;;;7369027;19;20074;-66
2023/06/24 01:49:45;;;;;;;7.25;4.68;;;;;;;;;;7368049;19;20014;-67
2023/06/24 01:52:11;;;;;;;7.45;4.80;;;;;;;;;;7372005;19;20134;-66
2023/06/24 01:54:39;;;;;;;8.00;4.95;;;;;;;;;;7394513;19;20006;-67
2023/06/24 01:57:08;;;;;;;7.32;4.78;;;;;;;;;;7364046;19;20066;-66
2023/06/24 01:59:35;;;;;;;7.93;4.90;;;;;;;;;;7369298;19;20007;-66
2023/06/24 02:02:02;;;;;;;10.38;5.60;;;;;;;;;;7370014;19;20018;-65
2023/06/24 02:04:31;;;;;;;7.55;5.20;;;;;;;;;;7371167;19;20107;-66
2023/06/24 02:07:02;;;;;;;7.25;4.63;;;;;;;;;;7368812;19;20011;-66
2023/06/24 02:09:28;;;;;;;10.33;5.03;;;;;;;;;;7387371;19;20034;-66
2023/06/24 02:11:56;;;;;;;9.27;5.40;;;;;;;;;;7368462;19;20259;-66
2023/06/24 02:14:22;;;;;;;7.95;5.60;;;;;;;;;;7370169;19;20118;-66
2023/06/24 02:16:50;;;;;;;7.68;4.85;;;;;;;;;;7368458;19;20050;-66
2023/06/24 02:19:17;;;;;;;8.10;4.95;;;;;;;;;;7367477;19;20027;-66
2023/06/24 02:21:43;;;;;;;8.02;5.13;;;;;;;;;;7390918;19;20014;-66
2023/06/24 02:24:09;;;;;;;7.75;5.40;;;;;;;;;;7368793;19;20361;-66
2023/06/24 02:26:40;;;;;;;8.02;5.18;;;;;;;;;;7366861;19;20058;-66
2023/06/24 02:29:08;;;;;;;8.20;5.53;;;;;;;;;;7368071;19;20844;-66
2023/06/24 02:31:34;;;;;;;8.27;5.78;;;;;;;;;;7368893;19;20014;-66
2023/06/24 02:33:59;;;;;;;9.18;5.53;;;;;;;;;;7369350;19;20416;-66
2023/06/24 02:36:24;;;;;;;11.30;5.82;;;;;;;;;;7391521;19;20082;-66
2023/06/24 02:38:49;;;;;;;11.13;6.15;;;;;;;;;;7369405;19;20138;-67
2023/06/24 02:41:15;;;;;;;10.50;5.85;;;;;;;;;;7369205;19;20492;-66
2023/06/24 02:43:40;;;;;;;10.00;6.07;;;;;;;;;;7367649;19;20010;-67
2023/06/24 02:46:07;;;;;;;9.65;5.75;;;;;;;;;;7367933;19;20018;-66
2023/06/24 02:48:34;;;;;;;8.55;5.93;;;;;;;;;;7388793;19;20025;-66
2023/06/24 02:51:02;;;;;;;10.30;6.28;;;;;;;;;;7366697;19;20014;-66
2023/06/24 02:53:28;;;;;;;11.10;6.25;;;;;;;;;;7365431;19;20009;-66
2023/06/24 02:55:55;;;;;;;12.40;6.15;;;;;;;;;;7365881;19;20444;-66
2023/06/24 02:58:21;;;;;;;10.55;6.32;;;;;;;;;;7367810;19;20034;-66
2023/06/24 03:00:46;;;;;;;8.93;6.15;;;;;;;;;;7388989;19;20464;-66
2023/06/24 03:03:12;;;;;;;12.50;6.18;;;;;;;;;;7366129;19;20018;-66
2023/06/24 03:05:38;;;;;;;13.18;6.75;;;;;;;;;;7367974;19;20021;-67
2023/06/24 03:08:04;;;;;;;12.32;6.63;;;;;;;;;;7366875;19;20022;-67
2023/06/24 03:10:29;;;;;;;14.90;6.10;;;;;;;;;;7367000;19;20011;-65
2023/06/24 03:12:54;;;;;;;12.48;6.47;;;;;;;;;;7365257;19;20376;-66
2023/06/24 03:15:20;;;;;;;9.02;5.72;;;;;;;;;;7395886;19;20138;-65
2023/06/24 03:17:46;;;;;;;9.95;6.55;;;;;;;;;;7375069;19;20375;-66
2023/06/24 03:20:11;;;;;;;10.30;6.43;;;;;;;;;;7374155;19;20010;-65
2023/06/24 03:22:37;;;;;;;11.38;7.07;;;;;;;;;;7373782;19;20496;-66
2023/06/24 03:25:02;;;;;;;10.75;6.10;;;;;;;;;;7372253;19;20516;-65
2023/06/24 03:27:28;;;;;;;8.93;6.13;;;;;;;;;;7389870;19;20011;-66
2023/06/24 03:29:53;;;;;;;11.25;6.65;;;;;;;;;;7366865;19;20042;-66
2023/06/24 03:32:18;;;;;;;12.43;7.25;;;;;;;;;;7368930;19;20011;-66
2023/06/24 03:34:44;;;;;;;9.85;6.45;;;;;;;;;;7366121;19;20391;-66
2023/06/24 03:37:09;;;;;;;10.55;7.03;;;;;;;;;;7368745;19;20008;-66
2023/06/24 03:39:34;;;;;;;11.05;7.13;;;;;;;;;;7387256;19;20017;-66
2023/06/24 03:42:00;;;;;;;11.32;6.45;;;;;;;;;;7366451;19;20047;-66
2023/06/24 03:44:26;;;;;;;8.93;6.30;;;;;;;;;;7366446;19;20021;-66
2023/06/24 03:46:51;;;;;;;9.77;6.43;;;;;;;;;;7368007;19;20011;-66
2023/06/24 03:49:17;;;;;;;9.27;6.28;;;;;;;;;;7372193;19;20031;-66
2023/06/24 03:51:43;;;;;;;11.20;6.55;;;;;;;;;;7394310;19;20009;-66
2023/06/24 03:54:09;;;;;;;8.43;5.88;;;;;;;;;;7369801;19;20011;-65
2023/06/24 03:56:34;;;;;;;9.43;5.80;;;;;;;;;;7369037;19;20074;-66
2023/06/24 03:58:59;;;;;;;9.20;6.03;;;;;;;;;;7368443;19;20090;-66
2023/06/24 04:01:25;;;;;;;9.70;6.10;;;;;;;;;;7367263;19;20021;-66
2023/06/24 04:03:50;;;;;;;8.27;5.70;;;;;;;;;;7379535;19;20017;-66
2023/06/24 04:06:15;;;;;;;9.90;5.75;;;;;;;;;;7384395;19;20061;-66
2023/06/24 04:08:42;;;;;;;9.25;5.60;;;;;;;;;;7370746;19;20369;-66
2023/06/24 04:11:08;;;;;;;9.50;5.50;;;;;;;;;;7371449;19;20039;-66
2023/06/24 04:13:33;;;;;;;8.45;5.85;;;;;;;;;;7371881;19;20468;-66
2023/06/24 04:15:59;;;;;;;7.63;5.25;;;;;;;;;;7372555;19;20101;-66
2023/06/24 04:18:24;;;;;;;8.98;4.93;;;;;;;;;;7391350;19;20008;-66
2023/06/24 04:20:49;;;;;;;8.02;4.93;;;;;;;;;;7370889;19;20006;-66
2023/06/24 04:23:15;;;;;;;10.70;5.97;;;;;;;;;;7372645;19;20018;-66
2023/06/24 04:25:42;;;;;;;10.60;5.30;;;;;;;;;;7371693;19;20018;-66
2023/06/24 04:28:08;;;;;;;7.45;4.88;;;;;;;;;;7367818;19;20021;-66
2023/06/24 04:30:35;;;;;;;9.20;5.57;;;;;;;;;;7392086;19;20077;-66
2023/06/24 04:33:01;;;;;;;9.25;5.55;;;;;;;;;;7372729;19;20010;-66
2023/06/24 04:35:26;;;;;;;10.10;5.25;;;;;;;;;;7371260;19;20039;-66
2023/06/24 04:37:51;;;;;;;9.18;4.97;;;;;;;;;;7369785;19;20017;-66
2023/06/24 04:40:17;;;;;;;7.97;5.57;;;;;;;;;;7372014;19;20362;-67
2023/06/24 04:42:42;;;;;;;8.65;5.45;;;;;;;;;;7394008;19;20015;-66
2023/06/24 04:45:11;;;;;;;11.50;5.50;;;;;;;;;;7371340;19;20459;-66
2023/06/24 04:47:36;;;;;;;9.27;5.53;;;;;;;;;;7368498;19;20086;-66
2023/06/24 04:50:02;;;;;;;7.72;5.32;;;;;;;;;;7369928;19;20034;-66
2023/06/24 04:52:28;;;;;;;9.25;5.53;;;;;;;;;;7371656;19;20017;-66
2023/06/24 04:54:53;;;;;;;10.15;5.53;;;;;;;;;;7371629;19;20465;-66
2023/06/24 04:57:28;;;;;;;7.38;5.47;;;;;;;;;;7392966;19;20410;-66
2023/06/24 04:59:53;;;;;;;9.80;5.68;;;;;;;;;;7369830;19;20016;-66
2023/06/24 05:02:18;;;;;;;8.85;5.53;;;;;;;;;;7367526;19;20018;-66
2023/06/24 05:04:44;;;;;;;10.45;5.20;;;;;;;;;;7369399;19;20124;-66
2023/06/24 05:07:09;;;;;;;10.55;5.65;;;;;;;;;;7369109;19;20034;-66
2023/06/24 05:09:37;;;;;;;13.55;6.35;;;;;;;;;;7387457;19;20074;-66
2023/06/24 05:12:06;;;;;;;11.82;5.75;;;;;;;;;;7368915;19;20006;-66
2023/06/24 05:14:34;;;;;;;15.68;5.55;;;;;;;;;;7367857;19;20072;-66
2023/06/24 05:16:59;;;;;;;11.20;5.60;;;;;;;;;;7367295;19;20085;-66
2023/06/24 05:19:25;;;;;;;9.02;5.25;;;;;;;;;;7369520;19;20836;-66
2023/06/24 05:21:50;;;;;;;9.77;5.53;;;;;;;;;;7387590;19;20062;-66
2023/06/24 05:24:15;;;;;;;10.48;5.55;;;;;;;;;;7380472;19;20002;-66
2023/06/24 05:26:40;;;;;;;10.68;6.10;;;;;;;;;;7370867;19;20002;-66
2023/06/24 05:29:06;;;;;;;10.52;5.97;;;;;;;;;;7372473;19;20016;-66
2023/06/24 05:31:31;;;;;;;14.50;6.00;;;;;;;;;;7373773;19;20010;-73
2023/06/24 05:33:56;;;;;;;12.15;5.85;;;;;;;;;;7360699;19;20026;-71
2023/06/24 05:36:22;;;;;;;10.10;6.22;;;;;;;;;;7387412;19;20047;-70
2023/06/24 05:38:48;;;;;;;10.35;6.50;;;;;;;;;;7368065;19;20118;-70
2023/06/24 05:41:14;;;;;;;9.13;6.15;;;;;;;;;;7368594;19;20404;-70
2023/06/24 05:43:39;;;;;;;10.30;5.40;;;;;;;;;;7366418;19;20014;-70
2023/06/24 05:46:04;;;;;;;11.32;6.00;;;;;;;;;;7368245;19;20014;-69
2023/06/24 05:48:30;;;;;;;10.05;5.55;;;;;;;;;;7388203;19;20002;-68
2023/06/24 05:50:55;;;;;;;12.77;5.85;;;;;;;;;;7369749;19;20341;-70
2023/06/24 05:53:20;;;;;;;8.85;5.97;;;;;;;;;;7369382;19;20031;-70
2023/06/24 05:55:46;;;;;;;9.30;6.25;;;;;;;;;;7368802;19;20908;-71
2023/06/24 05:58:11;;;;;;;8.07;5.57;;;;;;;;;;7368197;19;20014;-70
2023/06/24 06:00:37;;;;;;;10.60;5.60;;;;;;;;;;7388952;19;20037;-69
2023/06/24 06:03:02;;;;;;;11.52;6.45;;;;;;;;;;7368858;19;20431;-70
2023/06/24 06:05:27;;;;;;;11.25;5.97;;;;;;;;;;7370648;19;20034;-70
2023/06/24 06:07:53;;;;;;;11.30;6.32;;;;;;;;;;7369419;19;20017;-70
2023/06/24 06:10:19;;;;;;;11.00;5.68;;;;;;;;;;7371252;19;20410;-70
2023/06/24 06:12:44;;;;;;;10.25;6.03;;;;;;;;;;7392945;19;20010;-70
2023/06/24 06:15:10;;;;;;;12.43;6.07;;;;;;;;;;7362764;19;20014;-70
2023/06/24 06:17:35;;;;;;;11.18;6.13;;;;;;;;;;7363815;19;20015;-70
2023/06/24 06:20:01;;;;;;;13.35;6.57;;;;;;;;;;7361208;19;20007;-71
2023/06/24 06:22:26;;;;;;;12.20;6.32;;;;;;;;;;7365576;19;20102;-71
2023/06/24 06:24:51;;;;;;;11.30;6.07;;;;;;;;;;7367882;19;20034;-70
2023/06/24 06:27:17;;;;;;;13.55;5.82;;;;;;;;;;7383643;19;20876;-70
2023/06/24 06:29:42;;;;;;;10.57;5.30;;;;;;;;;;7364156;19;20020;-70
2023/06/24 06:32:08;;;;;;;10.88;6.28;;;;;;;;;;7368193;19;20313;-69
2023/06/24 06:34:33;;;;;;;10.23;6.53;;;;;;;;;;7368947;19;20010;-71
2023/06/24 06:36:58;;;;;;;11.15;6.10;;;;;;;;;;7367880;19;19998;-69
2023/06/24 06:39:23;;;;;;;9.32;5.50;;;;;;;;;;7392400;19;20006;-70
2023/06/24 06:41:49;;;;;;;9.50;5.80;;;;;;;;;;7368573;19;20144;-70
2023/06/24 06:44:14;;;;;;;8.83;5.80;;;;;;;;;;7370798;19;20480;-71
2023/06/24 06:46:39;;;;;;;9.95;5.85;;;;;;;;;;7369419;19;20256;-70
2023/06/24 06:49:05;;;;;;;9.25;5.25;;;;;;;;;;7367137;19;20035;-70
2023/06/24 06:51:30;;;;;;;8.82;5.40;;;;;;;;;;7388263;19;20014;-69
2023/06/24 06:53:55;;;;;;;10.05;5.85;;;;;;;;;;7366246;19;20053;-70
2023/06/24 06:56:24;;;;;;;9.55;5.03;;;;;;;;;;7363796;19;20030;-71
2023/06/24 06:58:53;;;;;;;9.40;5.78;;;;;;;;;;7365026;19;20423;-71
2023/06/24 07:01:19;;;;;;;9.07;4.90;;;;;;;;;;7365848;19;20018;-71
2023/06/24 07:03:45;;;;;;;8.70;5.20;;;;;;;;;;7388691;19;20380;-70
2023/06/24 07:06:10;;;;;;;10.10;5.57;;;;;;;;;;7364074;19;20014;-72
2023/06/24 07:08:36;;;;;;;10.82;5.40;;;;;;;;;;7365115;19;20011;-69
2023/06/24 07:11:04;;;;;;;8.43;4.90;;;;;;;;;;7365162;19;20034;-71
2023/06/24 07:13:30;;;;;;;8.25;5.50;;;;;;;;;;7368040;19;20006;-71
2023/06/24 07:15:55;;;;;;;10.48;5.80;;;;;;;;;;7366202;19;20395;-71
2023/06/24 07:18:20;;;;;;;9.05;5.80;;;;;;;;;;7388301;19;20017;-71
2023/06/24 07:20:46;;;;;;;9.20;5.88;;;;;;;;;;7367682;19;20018;-72
2023/06/24 07:23:11;;;;;;;10.10;5.95;;;;;;;;;;7366243;19;20442;-70
2023/06/24 07:25:37;;;;;;;9.77;5.78;;;;;;;;;;7365765;19;20035;-70
2023/06/24 07:28:02;;;;;;;8.90;6.10;;;;;;;;;;7365503;19;20002;-70
2023/06/24 07:30:28;;;;;;;9.63;5.63;;;;;;;;;;7386189;19;20077;-70
2023/06/24 07:32:53;;;;;;;11.20;6.15;;;;;;;;;;7361925;19;20032;-71
2023/06/24 07:35:19;;;;;;;9.50;5.72;;;;;;;;;;7364266;19;20018;-71
2023/06/24 07:37:44;;;;;;;8.48;5.72;;;;;;;;;;7364218;19;20014;-71
2023/06/24 07:40:10;;;;;;;8.77;6.07;;;;;;;;;;7364881;19;20044;-70
2023/06/24 07:42:35;;;;;;;8.60;5.53;;;;;;;;;;7387450;19;20082;-71
2023/06/24 07:45:01;;;;;;;8.32;6.00;;;;;;;;;;7365266;19;20015;-71
2023/06/24 07:47:26;;;;;;;10.38;5.55;;;;;;;;;;7366650;19;20035;-71
2023/06/24 07:49:51;;;;;;;9.20;5.60;;;;;;;;;;7366915;19;20014;-70
2023/06/24 07:52:17;;;;;;;9.63;5.70;;;;;;;;;;7370917;19;20055;-71
2023/06/24 07:54:42;;;;;;;12.40;6.22;;;;;;;;;;7390460;19;20074;-72
2023/06/24 07:57:08;;;;;;;9.48;5.57;;;;;;;;;;7368114;19;20031;-72
2023/06/24 07:59:33;;;;;;;7.30;5.55;;;;;;;;;;7367911;19;20476;-71
2023/06/24 08:01:58;;;;;;;11.18;6.07;;;;;;;;;;7366138;19;20018;-71
2023/06/24 08:04:24;;;;;;;8.45;5.82;;;;;;;;;;7366387;19;20006;-69
2023/06/24 08:06:49;;;;;;;9.38;6.15;;;;;;;;;;7388371;19;20442;-70
2023/06/24 08:09:16;;;;;;;11.57;6.60;;;;;;;;;;7366663;19;20018;-70
2023/06/24 08:11:41;;;;;;;12.82;5.95;;;;;;;;;;7372956;19;20010;-69
2023/06/24 08:14:07;;;;;;;8.63;5.90;;;;;;;;;;7366922;19;20377;-70
2023/06/24 08:16:32;;;;;;;9.63;6.18;;;;;;;;;;7366227;19;20022;-70
2023/06/24 08:18:57;;;;;;;9.02;6.38;;;;;;;;;;7365044;19;20361;-70
2023/06/24 08:21:22;;;;;;;8.43;5.93;;;;;;;;;;7398329;19;20440;-69
2023/06/24 08:23:50;;;;;;;8.88;5.55;;;;;;;;;;7367063;19;20058;-71
2023/06/24 08:26:15;;;;;;;8.82;6.45;;;;;;;;;;7366244;19;20010;-70
2023/06/24 08:28:41;;;;;;;11.52;6.10;;;;;;;;;;7364664;19;20043;-70
2023/06/24 08:31:06;;;;;;;8.45;5.60;;;;;;;;;;7365663;19;20003;-70
2023/06/24 08:33:31;;;;;;;9.75;6.18;;;;;;;;;;7387927;19;20007;-70
2023/06/24 08:35:57;;;;;;;10.05;5.78;;;;;;;;;;7365548;19;20078;-70
2023/06/24 08:38:22;;;;;;;7.60;5.65;;;;;;;;;;7364966;19;20014;-69
2023/06/24 08:40:49;;;;;;;9.35;5.15;;;;;;;;;;7366557;19;20481;-70
2023/06/24 08:43:14;;;;;;;9.88;4.95;;;;;;;;;;7368319;19;20015;-70
2023/06/24 08:45:40;;;;;;;8.25;5.10;;;;;;;;;;7388118;19;20019;-70
2023/06/24 08:48:05;;;;;;;7.05;5.03;;;;;;;;;;7363823;19;20436;-70
2023/06/24 08:50:36;;;;;;;8.57;5.28;;;;;;;;;;7367002;19;20365;-69
2023/06/24 08:53:07;;;;;;;8.90;5.00;;;;;;;;;;7371453;19;20401;-69
2023/06/24 08:55:39;;;;;;;7.60;5.10;;;;;;;;;;7375468;19;20066;-71
2023/06/24 08:58:05;;;;;;;9.38;5.65;;;;;;;;;;7370028;19;20009;-70
2023/06/24 09:00:30;;;;;;;7.50;4.95;;;;;;;;;;7390821;19;20121;-70
2023/06/24 09:02:56;;;;;;;9.77;4.80;;;;;;;;;;7371990;19;20002;-71
2023/06/24 09:05:21;;;;;;;6.97;4.65;;;;;;;;;;7372919;19;20002;-70
2023/06/24 09:07:48;;;;;;;7.47;4.85;;;;;;;;;;7375700;19;20396;-70
2023/06/24 09:10:30;;;;;;;8.93;4.30;;;;;;;;;;7372988;19;20014;-70
2023/06/24 09:12:55;;;;;;;5.80;3.95;;;;;;;;;;7372946;19;20017;-71
2023/06/24 09:15:21;;;;;;;7.90;4.30;;;;;;;;;;7395256;19;20007;-70
2023/06/24 09:17:46;;;;;;;7.25;4.50;;;;;;;;;;7371864;19;20018;-70
2023/06/24 09:20:12;;;;;;;5.65;3.58;;;;;;;;;;7371885;19;20002;-68
2023/06/24 09:22:41;;;;;;;8.68;3.97;;;;;;;;;;7380647;19;20014;-69
2023/06/24 09:25:07;;;;;;;8.18;5.20;;;;;;;;;;7383380;19;20572;-70
2023/06/24 09:27:35;;;;;;;6.05;4.10;;;;;;;;;;7397782;19;20007;-70
2023/06/24 09:30:17;;;;;;;8.82;3.80;;;;;;;;;;7371902;19;20028;-70
2023/06/24 09:32:43;;;;;;;10.65;3.70;;;;;;;;;;7372027;19;20393;-70
2023/06/24 09:35:09;;;;;;;9.65;3.90;;;;;;;;;;7372688;19;20019;-69
2023/06/24 09:37:35;;;;;;;7.15;3.42;;;;;;;;;;7371345;19;20010;-74
2023/06/24 09:40:02;;;;;;;7.03;4.30;;;;;;;;;;7373780;19;20026;-69
2023/06/24 09:42:27;;;;;;;9.20;4.57;;;;;;;;;;7392477;19;20003;-69
2023/06/24 09:44:56;;;;;;;8.23;4.47;;;;;;;;;;7372195;19;20020;-69
2023/06/24 09:47:24;;;;;;;9.93;4.60;;;;;;;;;;7370339;19;20231;-70
2023/06/24 09:49:51;;;;;;;6.95;4.45;;;;;;;;;;7368038;19;20010;-66
2023/06/24 09:52:19;;;;;;;9.00;4.75;;;;;;;;;;7372593;19;20061;-68
2023/06/24 09:54:47;;;;;;;10.57;4.78;;;;;;;;;;7395009;19;20026;-68
2023/06/24 09:57:13;;;;;;;8.25;4.65;;;;;;;;;;7371758;19;20035;-67
2023/06/24 09:59:40;;;;;;;7.53;4.47;;;;;;;;;;7370880;19;20082;-68
2023/06/24 10:02:12;;;;;;;7.68;4.75;;;;;;;;;;7371396;19;20037;-65
2023/06/24 10:04:38;;;;;;;7.07;4.15;;;;;;;;;;7366860;19;20074;-68
2023/06/24 10:07:03;;;;;;;6.95;4.65;;;;;;;;;;7371052;19;20022;-67
2023/06/24 10:09:29;;;;;;;6.82;4.60;;;;;;;;;;7388528;19;20002;-67
2023/06/24 10:11:54;;;;;;;6.97;4.15;;;;;;;;;;7373059;19;20010;-67
2023/06/24 10:14:19;;;;;;;7.25;4.07;;;;;;;;;;7370654;19;20007;-67
2023/06/24 10:16:45;;;;;;;6.97;4.10;;;;;;;;;;7372847;19;20076;-66
2023/06/24 10:19:21;;;;;;;5.43;3.50;;;;;;;;;;7372509;19;19995;-66
2023/06/24 10:21:52;;;;;;;6.28;3.75;;;;;;;;;;7393896;19;19999;-67
2023/06/24 10:24:39;;;;;;;7.95;4.00;;;;;;;;;;7372291;19;20690;-68
2023/06/24 10:27:07;;;;;;;5.72;3.60;;;;;;;;;;7370887;19;20007;-67
2023/06/24 10:29:35;;;;;;;6.28;3.85;;;;;;;;;;7369155;19;20009;-66
2023/06/24 10:32:04;;;;;;;6.15;3.13;;;;;;;;;;7370625;19;20033;-67
2023/06/24 10:34:44;;;;;;;8.55;3.92;;;;;;;;;;7371323;19;20017;-66
2023/06/24 10:37:20;;;;;;;6.95;4.72;;;;;;;;;;7370815;19;20010;-66
2023/06/24 10:39:56;;;;;;;6.15;3.72;;;;;;;;;;7393010;19;19998;-67
2023/06/24 10:42:31;;;;;;;5.65;3.63;;;;;;;;;;7371404;19;20012;-66
2023/06/24 10:44:58;;;;;;;6.50;3.28;;;;;;;;;;7370194;19;20078;-67
2023/06/24 10:47:24;;;;;;;5.68;3.13;;;;;;;;;;7370677;19;20014;-67
2023/06/24 10:49:50;;;;;;;6.32;3.95;;;;;;;;;;7370987;19;20085;-66
2023/06/24 10:52:18;;;;;;;9.43;3.20;;;;;;;;;;7370414;19;20007;-66
2023/06/24 10:54:43;;;;;;;6.28;3.40;;;;;;;;;;7393531;19;20536;-67
2023/06/24 10:57:11;;;;;;;6.95;3.50;;;;;;;;;;7369922;19;20014;-66
2023/06/24 10:59:43;;;;;;;5.63;3.55;;;;;;;;;;7371027;19;20007;-67
2023/06/24 11:02:09;;;;;;;6.18;3.85;;;;;;;;;;7371455;19;20006;-67
2023/06/24 11:04:45;;;;;;;5.50;3.40;;;;;;;;;;7371542;19;20006;-67
2023/06/24 11:07:11;;;;;;;7.50;3.72;;;;;;;;;;7371002;19;20007;-67
2023/06/24 11:09:36;;;;;;;4.60;3.10;;;;;;;;;;7390019;19;19999;-67
2023/06/24 11:12:05;;;;;;;7.03;3.10;;;;;;;;;;7369754;19;20008;-67
2023/06/24 11:14:33;;;;;;;6.95;4.18;;;;;;;;;;7368184;19;20379;-67
2023/06/24 11:17:01;;;;;;;6.30;3.40;;;;;;;;;;7369934;19;20070;-67
2023/06/24 11:19:26;;;;;;;7.20;3.30;;;;;;;;;;7370702;19;20018;-67
2023/06/24 11:21:51;;;;;;;7.53;3.10;;;;;;;;;;7370967;19;20028;-67
2023/06/24 11:24:17;;;;;;;4.50;2.80;;;;;;;;;;7391865;19;20572;-67
2023/06/24 11:26:42;;;;;;;5.65;3.42;;;;;;;;;;7367027;19;20275;-67
2023/06/24 11:29:11;;;;;;;13.70;5.10;;;;;;;;;;7368767;19;20500;-67
2023/06/24 11:31:37;;;;;;;4.70;2.83;;;;;;;;;;7369825;19;20219;-67
2023/06/24 11:34:03;;;;;;;6.25;3.08;;;;;;;;;;7368522;19;20006;-66
2023/06/24 11:36:29;;;;;;;5.55;3.42;;;;;;;;;;7389938;19;20002;-67
2023/06/24 11:38:54;;;;;;;4.38;2.80;;;;;;;;;;7369526;19;20003;-67
2023/06/24 11:41:21;;;;;;;5.38;3.25;;;;;;;;;;7369544;19;20046;-67
2023/06/24 11:43:47;;;;;;;5.35;2.75;;;;;;;;;;7369794;19;20011;-67
2023/06/24 11:46:24;;;;;;;8.27;3.55;;;;;;;;;;7368904;19;20039;-66
2023/06/24 11:48:49;;;;;;;5.65;3.45;;;;;;;;;;7392153;19;20033;-66
2023/06/24 11:51:15;;;;;;;5.20;3.07;;;;;;;;;;7371303;19;20536;-66
2023/06/24 11:53:45;;;;;;;7.38;2.88;;;;;;;;;;7369513;19;20268;-67
2023/06/24 11:56:12;;;;;;;5.45;3.20;;;;;;;;;;7370143;19;20045;-66
2023/06/24 11:58:37;;;;;;;6.25;3.38;;;;;;;;;;7370620;19;20031;-66
2023/06/24 12:01:03;;;;;;;5.00;2.90;;;;;;;;;;7381084;19;20353;-68
2023/06/24 12:03:33;;;;;;;7.00;3.50;;;;;;;;;;7395322;19;20036;-67
2023/06/24 12:05:58;;;;;;;6.45;3.22;;;;;;;;;;7370630;19;20324;-67
2023/06/24 12:08:24;;;;;;;6.82;3.45;;;;;;;;;;7373231;19;21798;-66
2023/06/24 12:10:49;;;;;;;6.05;3.20;;;;;;;;;;7371817;19;20048;-66
2023/06/24 12:13:15;;;;;;;6.03;3.35;;;;;;;;;;7371629;19;20010;-67
2023/06/24 12:15:41;;;;;;;5.30;3.15;;;;;;;;;;7390402;19;20034;-67
2023/06/24 12:18:06;;;;;;;5.20;3.30;;;;;;;;;;7367988;19;20010;-67
2023/06/24 12:20:32;;;;;;;6.45;3.28;;;;;;;;;;7368863;19;20006;-66
2023/06/24 12:22:58;;;;;;;6.63;3.45;;;;;;;;;;7367690;19;20475;-66
2023/06/24 12:25:24;;;;;;;5.80;3.13;;;;;;;;;;7368105;19;20104;-66
2023/06/24 12:27:50;;;;;;;5.60;3.63;;;;;;;;;;7394769;19;20006;-66
2023/06/24 12:30:20;;;;;;;5.25;3.05;;;;;;;;;;7373157;19;20042;-66
2023/06/24 12:32:45;;;;;;;7.20;3.72;;;;;;;;;;7378074;19;20279;-66
2023/06/24 12:35:11;;;;;;;7.32;3.38;;;;;;;;;;7377782;19;20010;-66
2023/06/24 12:37:36;;;;;;;5.65;3.30;;;;;;;;;;7376094;19;20006;-67
2023/06/24 12:40:03;;;;;;;6.20;3.53;;;;;;;;;;7376932;19;20472;-67
2023/06/24 12:42:28;;;;;;;8.13;3.63;;;;;;;;;;7396854;19;20010;-67
2023/06/24 12:44:54;;;;;;;6.65;3.15;;;;;;;;;;7373113;19;20021;-68
2023/06/24 12:47:20;;;;;;;7.07;3.60;;;;;;;;;;7372671;19;20381;-68
2023/06/24 12:49:45;;;;;;;5.07;3.28;;;;;;;;;;7372896;19;20024;-66
2023/06/24 12:52:12;;;;;;;6.15;3.55;;;;;;;;;;7374186;19;20432;-68
2023/06/24 12:54:38;;;;;;;5.95;3.40;;;;;;;;;;7395473;19;20003;-67
2023/06/24 12:57:03;;;;;;;5.93;3.57;;;;;;;;;;7371589;19;20026;-67
2023/06/24 12:59:29;;;;;;;5.43;3.65;;;;;;;;;;7374254;19;20240;-67
2023/06/24 13:01:54;;;;;;;7.13;3.30;;;;;;;;;;7373401;19;20002;-67
2023/06/24 13:04:22;;;;;;;8.30;3.47;;;;;;;;;;7374206;19;20034;-67
2023/06/24 13:06:48;;;;;;;5.45;3.20;;;;;;;;;;7395003;19;20841;-67
2023/06/24 13:09:13;;;;;;;5.25;3.40;;;;;;;;;;7371925;19;20006;-67
2023/06/24 13:11:40;;;;;;;6.57;3.30;;;;;;;;;;7373720;19;20014;-67
2023/06/24 13:14:05;;;;;;;6.53;3.15;;;;;;;;;;7373538;19;20018;-68
2023/06/24 13:16:30;;;;;;;7.18;3.60;;;;;;;;;;7372963;19;20056;-67
2023/06/24 13:18:56;;;;;;;7.00;3.50;;;;;;;;;;7373170;19;20014;-68
2023/06/24 13:21:21;;;;;;;7.07;3.50;;;;;;;;;;7396060;19;20702;-67
2023/06/24 13:23:48;;;;;;;6.15;3.53;;;;;;;;;;7374380;19;20440;-67
2023/06/24 13:26:14;;;;;;;6.47;3.92;;;;;;;;;;7373735;19;20014;-67
2023/06/24 13:28:39;;;;;;;7.35;3.58;;;;;;;;;;7371025;19;20041;-67
2023/06/24 13:31:04;;;;;;;6.95;3.63;;;;;;;;;;7372841;19;20009;-67
2023/06/24 13:33:30;;;;;;;5.75;3.40;;;;;;;;;;7394950;19;20784;-67
2023/06/24 13:35:56;;;;;;;6.93;3.33;;;;;;;;;;7372401;19;20378;-67
2023/06/24 13:38:21;;;;;;;6.32;3.50;;;;;;;;;;7371920;19;20022;-67
2023/06/24 13:40:47;;;;;;;5.22;3.47;;;;;;;;;;7372716;19;20021;-67
2023/06/24 13:43:12;;;;;;;8.85;3.70;;;;;;;;;;7372913;19;20015;-67
2023/06/24 13:45:37;;;;;;;7.03;3.90;;;;;;;;;;7394958;19;20609;-67
2023/06/24 13:48:03;;;;;;;8.45;3.90;;;;;;;;;;7370794;19;20019;-67
2023/06/24 13:50:29;;;;;;;6.22;3.50;;;;;;;;;;7370491;19;20011;-68
2023/06/24 13:52:55;;;;;;;6.30;3.40;;;;;;;;;;7371890;19;20075;-67
2023/06/24 13:55:20;;;;;;;7.22;3.38;;;;;;;;;;7372400;19;20017;-66
2023/06/24 13:57:46;;;;;;;5.55;3.50;;;;;;;;;;7392759;19;20017;-66
2023/06/24 14:00:14;;;;;;;7.15;3.80;;;;;;;;;;7369185;19;20007;-67
2023/06/24 14:02:40;;;;;;;7.78;4.80;;;;;;;;;;7370152;19;20082;-67
2023/06/24 14:05:06;;;;;;;6.05;3.50;;;;;;;;;;7372011;19;20552;-67
2023/06/24 14:07:31;;;;;;;8.52;3.55;;;;;;;;;;7371053;19;20053;-67
2023/06/24 14:09:57;;;;;;;8.20;3.78;;;;;;;;;;7370407;19;20017;-66
2023/06/24 14:12:22;;;;;;;6.03;3.70;;;;;;;;;;7393503;19;20495;-67
2023/06/24 14:14:47;;;;;;;8.60;3.60;;;;;;;;;;7371984;19;20006;-67
2023/06/24 14:17:13;;;;;;;6.43;3.50;;;;;;;;;;7370751;19;20014;-67
2023/06/24 14:19:39;;;;;;;5.60;3.50;;;;;;;;;;7372645;19;20091;-67
2023/06/24 14:22:06;;;;;;;5.90;3.40;;;;;;;;;;7374617;19;20575;-67
2023/06/24 14:24:32;;;;;;;4.97;3.58;;;;;;;;;;7395962;19;20002;-67
2023/06/24 14:26:58;;;;;;;5.45;3.25;;;;;;;;;;7372654;19;20477;-66
2023/06/24 14:29:23;;;;;;;5.68;3.33;;;;;;;;;;7370735;19;20014;-67
2023/06/24 14:31:49;;;;;;;5.47;2.80;;;;;;;;;;7373589;19;20010;-66
2023/06/24 14:34:14;;;;;;;7.93;3.25;;;;;;;;;;7373811;19;20457;-66
2023/06/24 14:36:40;;;;;;;10.23;3.58;;;;;;;;;;7395061;19;20011;-66